sensor_id;sensor_type;location;lat;lon;timestamp;pressure;altitude;pressure_sealevel;temperature;humidity
61384;BME280;63511;49.346;8.798;2023-04-30T00:02:08;100557.84;;;15.16;71.22
61384;BME280;63511;49.346;8.798;2023-04-30T00:04:34;100555.63;;;15.22;71.27
61384;BME280;63511;49.346;8.798;2023-04-30T00:07:01;100565.56;;;15.17;72.56
61384;BME280;63511;49.346;8.798;2023-04-30T00:09:28;100559.34;;;15.28;71.90
61384;BME280;63511;49.346;8.798;2023-04-30T00:11:54;100558.22;;;15.23;72.07
61384;BME280;63511;49.346;8.798;2023-04-30T00:14:22;100563.88;;;15.02;72.55
61384;BME280;63511;49.346;8.798;2023-04-30T00:16:49;100563.59;;;15.12;73.02
61384;BME280;63511;49.346;8.798;2023-04-30T00:19:15;100556.56;;;15.24;72.42
61384;BME280;63511;49.346;8.798;2023-04-30T00:21:45;100563.00;;;15.01;73.62
61384;BME280;63511;49.346;8.798;2023-04-30T00:24:11;100573.09;;;15.00;73.89
61384;BME280;63511;49.346;8.798;2023-04-30T00:26:38;100570.25;;;15.10;72.91
61384;BME280;63511;49.346;8.798;2023-04-30T00:29:04;100579.09;;;15.16;72.36
61384;BME280;63511;49.346;8.798;2023-04-30T00:31:33;100573.06;;;14.83;72.93
61384;BME280;63511;49.346;8.798;2023-04-30T00:33:59;100573.88;;;14.99;72.01
61384;BME280;63511;49.346;8.798;2023-04-30T00:36:26;100582.78;;;14.91;73.95
61384;BME280;63511;49.346;8.798;2023-04-30T00:38:52;100582.72;;;15.05;73.10
61384;BME280;63511;49.346;8.798;2023-04-30T00:41:19;100573.81;;;15.13;72.29
61384;BME280;63511;49.346;8.798;2023-04-30T00:43:46;100575.41;;;14.95;72.20
61384;BME280;63511;49.346;8.798;2023-04-30T00:46:12;100578.69;;;14.78;74.09
61384;BME280;63511;49.346;8.798;2023-04-30T00:48:40;100576.28;;;14.96;73.31
61384;BME280;63511;49.346;8.798;2023-04-30T00:51:07;100571.06;;;14.78;73.99
61384;BME280;63511;49.346;8.798;2023-04-30T00:53:34;100581.19;;;14.93;73.46
61384;BME280;63511;49.346;8.798;2023-04-30T00:56:01;100571.56;;;14.87;72.49
61384;BME280;63511;49.346;8.798;2023-04-30T00:58:27;100569.88;;;14.87;72.83
61384;BME280;63511;49.346;8.798;2023-04-30T01:00:55;100573.50;;;14.91;71.97
61384;BME280;63511;49.346;8.798;2023-04-30T01:03:21;100571.34;;;14.99;72.17
61384;BME280;63511;49.346;8.798;2023-04-30T01:05:49;100574.66;;;14.98;72.33
61384;BME280;63511;49.346;8.798;2023-04-30T01:08:17;100575.47;;;14.80;71.32
61384;BME280;63511;49.346;8.798;2023-04-30T01:10:44;100566.81;;;14.62;73.64
61384;BME280;63511;49.346;8.798;2023-04-30T01:13:16;100569.97;;;14.89;72.50
61384;BME280;63511;49.346;8.798;2023-04-30T01:15:44;100573.78;;;14.81;73.26
61384;BME280;63511;49.346;8.798;2023-04-30T01:18:16;100566.50;;;15.03;71.76
61384;BME280;63511;49.346;8.798;2023-04-30T01:20:46;100570.38;;;14.80;71.85
61384;BME280;63511;49.346;8.798;2023-04-30T01:23:17;100577.06;;;14.95;72.59
61384;BME280;63511;49.346;8.798;2023-04-30T01:25:59;100568.31;;;14.89;72.19
61384;BME280;63511;49.346;8.798;2023-04-30T01:28:34;100566.00;;;14.94;71.51
61384;BME280;63511;49.346;8.798;2023-04-30T01:31:01;100562.25;;;14.87;70.69
61384;BME280;63511;49.346;8.798;2023-04-30T01:33:28;100565.25;;;14.64;74.13
61384;BME280;63511;49.346;8.798;2023-04-30T01:36:01;100562.91;;;14.83;70.51
61384;BME280;63511;49.346;8.798;2023-04-30T01:38:43;100570.47;;;14.98;69.55
61384;BME280;63511;49.346;8.798;2023-04-30T01:41:13;100568.47;;;14.76;70.12
61384;BME280;63511;49.346;8.798;2023-04-30T01:43:44;100559.16;;;14.93;69.93
61384;BME280;63511;49.346;8.798;2023-04-30T01:46:17;100550.28;;;14.85;70.56
61384;BME280;63511;49.346;8.798;2023-04-30T01:48:46;100556.25;;;14.85;69.99
61384;BME280;63511;49.346;8.798;2023-04-30T01:51:18;100556.06;;;14.99;68.32
61384;BME280;63511;49.346;8.798;2023-04-30T01:53:45;100562.56;;;14.77;69.69
61384;BME280;63511;49.346;8.798;2023-04-30T01:56:17;100559.97;;;14.61;68.16
61384;BME280;63511;49.346;8.798;2023-04-30T01:58:48;100562.56;;;14.77;69.56
61384;BME280;63511;49.346;8.798;2023-04-30T02:01:25;100564.25;;;14.93;67.93
61384;BME280;63511;49.346;8.798;2023-04-30T02:03:52;100555.72;;;15.07;67.32
61384;BME280;63511;49.346;8.798;2023-04-30T02:06:18;100559.69;;;15.02;66.61
61384;BME280;63511;49.346;8.798;2023-04-30T02:08:45;100559.59;;;15.01;68.22
61384;BME280;63511;49.346;8.798;2023-04-30T02:11:12;100555.16;;;14.97;66.75
61384;BME280;63511;49.346;8.798;2023-04-30T02:13:38;100563.31;;;14.91;66.65
61384;BME280;63511;49.346;8.798;2023-04-30T02:16:07;100556.28;;;15.18;66.49
61384;BME280;63511;49.346;8.798;2023-04-30T02:18:33;100564.66;;;14.84;68.28
61384;BME280;63511;49.346;8.798;2023-04-30T02:21:00;100561.66;;;14.92;67.46
61384;BME280;63511;49.346;8.798;2023-04-30T02:23:26;100569.41;;;14.78;67.29
61384;BME280;63511;49.346;8.798;2023-04-30T02:25:53;100565.59;;;14.70;67.40
61384;BME280;63511;49.346;8.798;2023-04-30T02:28:19;100562.69;;;14.95;67.06
61384;BME280;63511;49.346;8.798;2023-04-30T02:30:46;100561.69;;;14.77;67.32
61384;BME280;63511;49.346;8.798;2023-04-30T02:33:19;100561.69;;;14.77;67.06
61384;BME280;63511;49.346;8.798;2023-04-30T02:35:46;100561.47;;;14.88;67.57
61384;BME280;63511;49.346;8.798;2023-04-30T02:38:12;100558.16;;;14.89;66.85
61384;BME280;63511;49.346;8.798;2023-04-30T02:40:39;100560.25;;;14.82;67.96
61384;BME280;63511;49.346;8.798;2023-04-30T02:43:06;100561.09;;;14.97;66.21
61384;BME280;63511;49.346;8.798;2023-04-30T02:45:32;100566.00;;;14.94;65.96
61384;BME280;63511;49.346;8.798;2023-04-30T02:47:59;100565.53;;;14.85;66.95
61384;BME280;63511;49.346;8.798;2023-04-30T02:50:27;100561.63;;;14.75;66.73
61384;BME280;63511;49.346;8.798;2023-04-30T02:52:53;100559.66;;;14.86;66.51
61384;BME280;63511;49.346;8.798;2023-04-30T02:55:21;100557.13;;;14.86;65.94
61384;BME280;63511;49.346;8.798;2023-04-30T02:57:47;100556.03;;;14.97;66.96
61384;BME280;63511;49.346;8.798;2023-04-30T03:00:14;100558.28;;;14.93;66.71
61384;BME280;63511;49.346;8.798;2023-04-30T03:02:44;100557.00;;;14.68;66.66
61384;BME280;63511;49.346;8.798;2023-04-30T03:05:13;100556.78;;;14.80;66.76
61384;BME280;63511;49.346;8.798;2023-04-30T03:07:42;100554.84;;;14.60;66.61
61384;BME280;63511;49.346;8.798;2023-04-30T03:10:09;100560.09;;;14.79;66.91
61384;BME280;63511;49.346;8.798;2023-04-30T03:12:35;100561.53;;;14.74;67.93
61384;BME280;63511;49.346;8.798;2023-04-30T03:15:02;100559.44;;;14.67;67.43
61384;BME280;63511;49.346;8.798;2023-04-30T03:17:30;100561.53;;;14.74;66.82
61384;BME280;63511;49.346;8.798;2023-04-30T03:19:57;100566.66;;;14.59;66.80
61384;BME280;63511;49.346;8.798;2023-04-30T03:22:23;100570.97;;;14.60;67.68
61384;BME280;63511;49.346;8.798;2023-04-30T03:24:52;100565.69;;;14.57;68.10
61384;BME280;63511;49.346;8.798;2023-04-30T03:27:18;100563.84;;;14.69;67.56
61384;BME280;63511;49.346;8.798;2023-04-30T03:29:45;100569.41;;;14.78;66.38
61384;BME280;63511;49.346;8.798;2023-04-30T03:32:12;100570.28;;;14.79;66.96
61384;BME280;63511;49.346;8.798;2023-04-30T03:34:39;100565.97;;;14.78;67.72
61384;BME280;63511;49.346;8.798;2023-04-30T03:37:05;100564.25;;;14.93;67.52
61384;BME280;63511;49.346;8.798;2023-04-30T03:39:32;100559.41;;;14.81;68.43
61384;BME280;63511;49.346;8.798;2023-04-30T03:42:01;100564.31;;;14.78;66.00
61384;BME280;63511;49.346;8.798;2023-04-30T03:44:27;100568.16;;;15.03;65.97
61384;BME280;63511;49.346;8.798;2023-04-30T03:46:54;100557.13;;;14.86;66.91
61384;BME280;63511;49.346;8.798;2023-04-30T03:49:20;100558.66;;;14.37;69.27
61384;BME280;63511;49.346;8.798;2023-04-30T03:51:49;100558.66;;;14.37;68.71
61384;BME280;63511;49.346;8.798;2023-04-30T03:54:16;100559.00;;;14.43;68.12
61384;BME280;63511;49.346;8.798;2023-04-30T03:56:42;100565.00;;;14.60;69.02
61384;BME280;63511;49.346;8.798;2023-04-30T03:59:13;100558.56;;;14.66;68.61
61384;BME280;63511;49.346;8.798;2023-04-30T04:01:39;100557.81;;;14.53;69.16
61384;BME280;63511;49.346;8.798;2023-04-30T04:04:06;100559.25;;;14.33;69.75
61384;BME280;63511;49.346;8.798;2023-04-30T04:06:34;100558.44;;;14.49;69.75
61384;BME280;63511;49.346;8.798;2023-04-30T04:09:00;100561.38;;;14.71;68.28
61384;BME280;63511;49.346;8.798;2023-04-30T04:11:28;100557.13;;;14.55;69.39
61384;BME280;63511;49.346;8.798;2023-04-30T04:13:54;100566.66;;;14.59;69.25
61384;BME280;63511;49.346;8.798;2023-04-30T04:16:22;100564.66;;;14.54;70.70
61384;BME280;63511;49.346;8.798;2023-04-30T04:18:49;100563.88;;;14.55;69.85
61384;BME280;63511;49.346;8.798;2023-04-30T04:21:16;100570.44;;;14.66;68.64
61384;BME280;63511;49.346;8.798;2023-04-30T04:23:43;100568.78;;;14.52;69.15
61384;BME280;63511;49.346;8.798;2023-04-30T04:26:10;100574.66;;;14.51;69.52
61384;BME280;63511;49.346;8.798;2023-04-30T04:28:36;100580.53;;;14.20;69.55
61384;BME280;63511;49.346;8.798;2023-04-30T04:31:03;100577.56;;;14.27;68.71
61384;BME280;63511;49.346;8.798;2023-04-30T04:33:31;100578.50;;;14.59;66.35
61384;BME280;63511;49.346;8.798;2023-04-30T04:35:58;100587.34;;;14.65;68.56
61384;BME280;63511;49.346;8.798;2023-04-30T04:38:24;100587.09;;;14.77;67.25
61384;BME280;63511;49.346;8.798;2023-04-30T04:40:51;100585.44;;;14.77;66.67
61384;BME280;63511;49.346;8.798;2023-04-30T04:43:18;100593.25;;;14.35;67.76
61384;BME280;63511;49.346;8.798;2023-04-30T04:45:45;100586.88;;;14.72;66.55
61384;BME280;63511;49.346;8.798;2023-04-30T04:48:12;100582.78;;;14.91;67.43
61384;BME280;63511;49.346;8.798;2023-04-30T04:50:40;100591.28;;;14.91;68.73
61384;BME280;63511;49.346;8.798;2023-04-30T04:53:07;100587.69;;;14.71;66.82
61384;BME280;63511;49.346;8.798;2023-04-30T04:55:34;100586.75;;;14.85;66.10
61384;BME280;63511;49.346;8.798;2023-04-30T04:58:02;100589.84;;;14.80;68.33
61384;BME280;63511;49.346;8.798;2023-04-30T05:00:29;100591.59;;;14.66;69.52
61384;BME280;63511;49.346;8.798;2023-04-30T05:02:55;100594.19;;;14.82;66.44
61384;BME280;63511;49.346;8.798;2023-04-30T05:05:22;100594.91;;;15.11;67.38
61384;BME280;63511;49.346;8.798;2023-04-30T05:07:50;100595.16;;;15.31;67.77
61384;BME280;63511;49.346;8.798;2023-04-30T05:10:19;100593.13;;;14.94;69.70
61384;BME280;63511;49.346;8.798;2023-04-30T05:12:45;100591.06;;;15.19;68.69
61384;BME280;63511;49.346;8.798;2023-04-30T05:15:12;100583.84;;;15.10;68.63
61384;BME280;63511;49.346;8.798;2023-04-30T05:17:39;100597.31;;;14.93;69.22
61384;BME280;63511;49.346;8.798;2023-04-30T05:20:06;100594.72;;;15.08;68.91
61384;BME280;63511;49.346;8.798;2023-04-30T05:22:35;100590.13;;;15.17;66.08
61384;BME280;63511;49.346;8.798;2023-04-30T05:25:04;100583.50;;;15.04;65.76
61384;BME280;63511;49.346;8.798;2023-04-30T05:27:31;100592.06;;;14.90;71.13
61384;BME280;63511;49.346;8.798;2023-04-30T05:29:58;100591.97;;;15.36;68.62
61384;BME280;63511;49.346;8.798;2023-04-30T05:32:25;100595.72;;;15.42;67.79
61384;BME280;63511;49.346;8.798;2023-04-30T05:34:52;100592.31;;;15.58;67.36
61384;BME280;63511;49.346;8.798;2023-04-30T05:37:18;100591.25;;;15.70;65.35
61384;BME280;63511;49.346;8.798;2023-04-30T05:39:46;100598.94;;;15.54;63.77
61384;BME280;63511;49.346;8.798;2023-04-30T05:42:14;100600.25;;;15.64;63.67
61384;BME280;63511;49.346;8.798;2023-04-30T05:44:41;100592.91;;;15.70;63.89
61384;BME280;63511;49.346;8.798;2023-04-30T05:47:07;100604.94;;;15.72;64.34
61384;BME280;63511;49.346;8.798;2023-04-30T05:49:34;100605.34;;;15.64;66.77
61384;BME280;63511;49.346;8.798;2023-04-30T05:52:01;100601.59;;;15.73;65.04
61384;BME280;63511;49.346;8.798;2023-04-30T05:57:38;100607.88;;;15.48;65.57
61384;BME280;63511;49.346;8.798;2023-04-30T06:00:08;100590.19;;;15.51;64.51
61384;BME280;63511;49.346;8.798;2023-04-30T06:02:35;100594.97;;;15.28;64.50
61384;BME280;63511;49.346;8.798;2023-04-30T06:05:01;100596.84;;;15.63;65.62
61384;BME280;63511;49.346;8.798;2023-04-30T06:07:28;100599.50;;;15.50;66.45
61384;BME280;63511;49.346;8.798;2023-04-30T06:09:55;100599.53;;;15.66;63.98
61384;BME280;63511;49.346;8.798;2023-04-30T06:12:21;100594.03;;;15.75;63.33
61384;BME280;63511;49.346;8.798;2023-04-30T06:14:49;100595.41;;;16.02;61.60
61384;BME280;63511;49.346;8.798;2023-04-30T06:17:16;100586.47;;;16.10;63.07
61384;BME280;63511;49.346;8.798;2023-04-30T06:19:43;100585.03;;;16.51;61.69
61384;BME280;63511;49.346;8.798;2023-04-30T06:22:10;100589.03;;;16.46;63.13
61384;BME280;63511;49.346;8.798;2023-04-30T06:24:36;100594.91;;;15.76;64.03
61384;BME280;63511;49.346;8.798;2023-04-30T06:27:03;100590.91;;;15.81;61.80
61384;BME280;63511;49.346;8.798;2023-04-30T06:29:31;100593.06;;;16.07;62.06
61384;BME280;63511;49.346;8.798;2023-04-30T06:31:59;100594.22;;;16.30;62.37
61384;BME280;63511;49.346;8.798;2023-04-30T06:34:26;100590.66;;;15.92;62.23
61384;BME280;63511;49.346;8.798;2023-04-30T06:36:52;100595.31;;;16.35;62.23
61384;BME280;63511;49.346;8.798;2023-04-30T06:39:19;100593.63;;;16.35;62.35
61384;BME280;63511;49.346;8.798;2023-04-30T06:41:46;100594.47;;;16.00;61.67
61384;BME280;63511;49.346;8.798;2023-04-30T06:44:12;100591.09;;;16.01;60.42
61384;BME280;63511;49.346;8.798;2023-04-30T06:46:39;100578.09;;;15.95;61.29
61384;BME280;63511;49.346;8.798;2023-04-30T06:49:07;100594.16;;;15.94;61.33
61384;BME280;63511;49.346;8.798;2023-04-30T06:51:34;100593.03;;;16.05;60.42
61384;BME280;63511;49.346;8.798;2023-04-30T06:54:00;100597.13;;;16.20;60.69
61384;BME280;63511;49.346;8.798;2023-04-30T06:56:27;100590.78;;;16.29;59.42
61384;BME280;63511;49.346;8.798;2023-04-30T06:58:54;100597.22;;;16.56;59.48
61384;BME280;63511;49.346;8.798;2023-04-30T07:01:20;100593.75;;;16.38;60.03
61384;BME280;63511;49.346;8.798;2023-04-30T07:03:47;100596.91;;;16.50;60.20
61384;BME280;63511;49.346;8.798;2023-04-30T07:06:17;100593.78;;;16.91;59.03
61384;BME280;63511;49.346;8.798;2023-04-30T07:08:45;100589.94;;;16.82;59.59
61384;BME280;63511;49.346;8.798;2023-04-30T07:11:12;100590.00;;;16.83;58.62
61384;BME280;63511;49.346;8.798;2023-04-30T07:13:39;100592.09;;;16.74;60.56
61384;BME280;63511;49.346;8.798;2023-04-30T07:16:05;100594.28;;;16.84;59.88
61384;BME280;63511;49.346;8.798;2023-04-30T07:18:33;100596.69;;;16.46;59.00
61384;BME280;63511;49.346;8.798;2023-04-30T07:21:00;100602.09;;;16.70;60.13
61384;BME280;63511;49.346;8.798;2023-04-30T07:23:29;100596.91;;;16.86;58.98
61384;BME280;63511;49.346;8.798;2023-04-30T07:25:55;100602.09;;;16.70;60.41
61384;BME280;63511;49.346;8.798;2023-04-30T07:28:22;100599.22;;;16.99;57.85
61384;BME280;63511;49.346;8.798;2023-04-30T07:30:49;100599.63;;;16.71;56.90
61384;BME280;63511;49.346;8.798;2023-04-30T07:33:18;100600.13;;;16.64;59.21
61384;BME280;63511;49.346;8.798;2023-04-30T07:35:46;100598.16;;;16.41;58.61
61384;BME280;63511;49.346;8.798;2023-04-30T07:38:12;100594.81;;;16.60;59.05
61384;BME280;63511;49.346;8.798;2023-04-30T07:40:42;100596.31;;;16.74;59.14
61384;BME280;63511;49.346;8.798;2023-04-30T07:43:09;100596.53;;;17.15;59.42
61384;BME280;63511;49.346;8.798;2023-04-30T07:45:36;100590.59;;;17.15;57.77
61384;BME280;63511;49.346;8.798;2023-04-30T07:48:08;100592.06;;;17.10;58.59
61384;BME280;63511;49.346;8.798;2023-04-30T07:50:39;100586.00;;;17.46;59.40
61384;BME280;63511;49.346;8.798;2023-04-30T07:53:06;100587.66;;;17.63;59.03
61384;BME280;63511;49.346;8.798;2023-04-30T07:55:34;100579.84;;;17.22;57.96
61384;BME280;63511;49.346;8.798;2023-04-30T07:58:02;100578.63;;;17.33;58.18
61384;BME280;63511;49.346;8.798;2023-04-30T08:00:29;100586.41;;;17.36;57.52
61384;BME280;63511;49.346;8.798;2023-04-30T08:02:56;100587.56;;;17.62;57.77
61384;BME280;63511;49.346;8.798;2023-04-30T08:05:23;100586.34;;;17.54;58.16
61384;BME280;63511;49.346;8.798;2023-04-30T08:07:49;100589.75;;;17.72;57.65
61384;BME280;63511;49.346;8.798;2023-04-30T08:10:27;100581.00;;;18.08;55.29
61384;BME280;63511;49.346;8.798;2023-04-30T08:12:57;100584.09;;;18.00;56.17
61384;BME280;63511;49.346;8.798;2023-04-30T08:15:25;100588.28;;;17.98;56.32
61384;BME280;63511;49.346;8.798;2023-04-30T08:17:52;100580.53;;;18.17;55.51
61384;BME280;63511;49.346;8.798;2023-04-30T08:20:20;100593.13;;;17.72;56.79
61384;BME280;63511;49.346;8.798;2023-04-30T08:22:47;100594.88;;;17.93;55.95
61384;BME280;63511;49.346;8.798;2023-04-30T08:25:14;100586.25;;;17.91;55.47
61384;BME280;63511;49.346;8.798;2023-04-30T08:27:40;100581.66;;;17.82;53.76
61384;BME280;63511;49.346;8.798;2023-04-30T08:30:07;100583.78;;;18.13;54.34
61384;BME280;63511;49.346;8.798;2023-04-30T08:32:35;100580.41;;;18.14;53.09
61384;BME280;63511;49.346;8.798;2023-04-30T08:35:02;100572.72;;;18.55;52.25
61384;BME280;63511;49.346;8.798;2023-04-30T08:37:29;100578.31;;;18.67;51.91
61384;BME280;63511;49.346;8.798;2023-04-30T08:39:55;100569.00;;;18.26;51.47
61384;BME280;63511;49.346;8.798;2023-04-30T08:42:24;100557.84;;;18.47;49.33
61384;BME280;63511;49.346;8.798;2023-04-30T08:44:50;100569.91;;;18.70;51.20
61384;BME280;63511;49.346;8.798;2023-04-30T08:47:17;100582.81;;;18.52;51.33
61384;BME280;63511;49.346;8.798;2023-04-30T08:49:47;100573.66;;;18.57;48.38
61384;BME280;63511;49.346;8.798;2023-04-30T08:52:14;100570.47;;;18.63;49.16
61384;BME280;63511;49.346;8.798;2023-04-30T08:54:40;100574.34;;;18.98;49.56
61384;BME280;63511;49.346;8.798;2023-04-30T08:57:07;100575.06;;;18.94;47.52
61384;BME280;63511;49.346;8.798;2023-04-30T08:59:34;100578.66;;;19.21;46.96
61384;BME280;63511;49.346;8.798;2023-04-30T09:02:01;100575.47;;;19.28;46.46
61384;BME280;63511;49.346;8.798;2023-04-30T09:04:27;100571.63;;;19.63;48.33
61384;BME280;63511;49.346;8.798;2023-04-30T09:09:38;100570.84;;;19.42;42.51
61384;BME280;63511;49.346;8.798;2023-04-30T09:12:11;100563.38;;;19.24;43.16
61384;BME280;63511;49.346;8.798;2023-04-30T09:14:39;100570.31;;;19.27;46.77
61384;BME280;63511;49.346;8.798;2023-04-30T09:17:06;100570.19;;;19.24;47.64
61384;BME280;63511;49.346;8.798;2023-04-30T09:19:34;100570.41;;;19.30;45.61
61384;BME280;63511;49.346;8.798;2023-04-30T09:24:45;100567.53;;;19.21;44.35
61384;BME280;63511;49.346;8.798;2023-04-30T09:27:15;100562.34;;;18.97;43.08
61384;BME280;63511;49.346;8.798;2023-04-30T09:29:42;100565.84;;;19.21;42.67
61384;BME280;63511;49.346;8.798;2023-04-30T09:32:08;100565.13;;;18.79;45.09
61384;BME280;63511;49.346;8.798;2023-04-30T09:34:35;100578.56;;;18.74;44.81
61384;BME280;63511;49.346;8.798;2023-04-30T09:37:02;100573.44;;;19.20;46.81
61384;BME280;63511;49.346;8.798;2023-04-30T09:39:29;100579.09;;;18.65;45.03
61384;BME280;63511;49.346;8.798;2023-04-30T09:42:07;100575.81;;;18.91;45.40
61384;BME280;63511;49.346;8.798;2023-04-30T09:44:35;100567.13;;;19.34;43.99
61384;BME280;63511;49.346;8.798;2023-04-30T09:47:02;100560.75;;;18.99;45.22
61384;BME280;63511;49.346;8.798;2023-04-30T09:49:29;100567.16;;;18.88;45.45
61384;BME280;63511;49.346;8.798;2023-04-30T09:51:56;100562.44;;;18.76;46.23
61384;BME280;63511;49.346;8.798;2023-04-30T09:54:24;100555.59;;;19.21;45.76
61384;BME280;63511;49.346;8.798;2023-04-30T09:56:52;100561.19;;;19.11;45.85
61384;BME280;63511;49.346;8.798;2023-04-30T09:59:21;100557.22;;;19.19;45.69
61384;BME280;63511;49.346;8.798;2023-04-30T10:01:48;100568.75;;;19.08;45.83
61384;BME280;63511;49.346;8.798;2023-04-30T10:04:16;100570.66;;;18.90;46.16
61384;BME280;63511;49.346;8.798;2023-04-30T10:06:44;100568.66;;;18.83;48.13
61384;BME280;63511;49.346;8.798;2023-04-30T10:09:11;100553.06;;;19.45;45.69
61384;BME280;63511;49.346;8.798;2023-04-30T10:11:40;100561.41;;;19.90;43.18
61384;BME280;63511;49.346;8.798;2023-04-30T10:14:09;100558.56;;;19.33;45.51
61384;BME280;63511;49.346;8.798;2023-04-30T10:16:42;100540.59;;;20.06;43.76
61384;BME280;63511;49.346;8.798;2023-04-30T10:19:11;100549.53;;;19.92;46.98
61384;BME280;63511;49.346;8.798;2023-04-30T10:21:39;100544.50;;;19.70;45.94
61384;BME280;63511;49.346;8.798;2023-04-30T10:24:07;100553.56;;;19.60;47.08
61384;BME280;63511;49.346;8.798;2023-04-30T10:26:33;100554.50;;;19.15;46.08
61384;BME280;63511;49.346;8.798;2023-04-30T10:29:00;100554.09;;;18.80;47.28
61384;BME280;63511;49.346;8.798;2023-04-30T10:31:27;100557.00;;;19.13;46.97
61384;BME280;63511;49.346;8.798;2023-04-30T10:33:59;100543.56;;;19.42;47.24
61384;BME280;63511;49.346;8.798;2023-04-30T10:36:36;100550.06;;;19.34;46.36
61384;BME280;63511;49.346;8.798;2023-04-30T10:39:05;100548.53;;;19.39;46.01
61384;BME280;63511;49.346;8.798;2023-04-30T10:41:32;100542.69;;;19.42;44.45
61384;BME280;63511;49.346;8.798;2023-04-30T10:44:04;100541.03;;;19.68;43.08
61384;BME280;63511;49.346;8.798;2023-04-30T10:46:35;100541.50;;;19.32;43.17
61384;BME280;63511;49.346;8.798;2023-04-30T10:49:03;100534.19;;;20.19;45.14
61384;BME280;63511;49.346;8.798;2023-04-30T10:51:46;100537.56;;;19.42;45.69
61384;BME280;63511;49.346;8.798;2023-04-30T10:54:14;100527.34;;;19.67;43.69
61384;BME280;63511;49.346;8.798;2023-04-30T10:56:42;100531.22;;;19.08;43.47
61384;BME280;63511;49.346;8.798;2023-04-30T10:59:10;100522.78;;;19.84;42.24
61384;BME280;63511;49.346;8.798;2023-04-30T11:01:53;100530.31;;;19.30;44.85
61384;BME280;63511;49.346;8.798;2023-04-30T11:04:21;100521.06;;;19.58;45.17
61384;BME280;63511;49.346;8.798;2023-04-30T11:06:54;100518.59;;;19.61;46.83
61384;BME280;63511;49.346;8.798;2023-04-30T11:09:33;100521.91;;;19.34;44.90
61384;BME280;63511;49.346;8.798;2023-04-30T11:12:01;100516.59;;;19.77;42.52
61384;BME280;63511;49.346;8.798;2023-04-30T11:14:30;100511.81;;;19.63;45.94
61384;BME280;63511;49.346;8.798;2023-04-30T11:16:57;100513.66;;;19.67;45.91
61384;BME280;63511;49.346;8.798;2023-04-30T11:19:25;100518.31;;;19.05;45.00
61384;BME280;63511;49.346;8.798;2023-04-30T11:24:48;100516.25;;;19.43;44.83
61384;BME280;63511;49.346;8.798;2023-04-30T11:27:18;100503.84;;;19.79;45.36
61384;BME280;63511;49.346;8.798;2023-04-30T11:29:44;100510.28;;;19.68;44.95
61384;BME280;63511;49.346;8.798;2023-04-30T11:32:12;100504.06;;;19.86;43.46
61384;BME280;63511;49.346;8.798;2023-04-30T11:34:40;100506.00;;;19.43;43.95
61384;BME280;63511;49.346;8.798;2023-04-30T11:37:08;100512.09;;;19.23;44.27
61384;BME280;63511;49.346;8.798;2023-04-30T11:39:37;100505.34;;;19.25;44.53
61384;BME280;63511;49.346;8.798;2023-04-30T11:42:05;100508.94;;;19.53;44.56
61384;BME280;63511;49.346;8.798;2023-04-30T11:44:32;100505.56;;;19.31;45.98
61384;BME280;63511;49.346;8.798;2023-04-30T11:46:58;100505.16;;;19.44;45.11
61384;BME280;63511;49.346;8.798;2023-04-30T11:49:25;100515.81;;;19.55;45.11
61384;BME280;63511;49.346;8.798;2023-04-30T11:51:53;100500.41;;;19.80;46.48
61384;BME280;63511;49.346;8.798;2023-04-30T11:54:23;100497.81;;;20.05;47.64
61384;BME280;63511;49.346;8.798;2023-04-30T11:56:49;100496.47;;;20.16;43.33
61384;BME280;63511;49.346;8.798;2023-04-30T11:59:16;100491.47;;;20.46;42.87
61384;BME280;63511;49.346;8.798;2023-04-30T12:01:43;100486.16;;;20.70;45.46
61384;BME280;63511;49.346;8.798;2023-04-30T12:04:10;100488.81;;;21.03;44.16
61384;BME280;63511;49.346;8.798;2023-04-30T12:06:37;100477.44;;;20.95;41.51
61384;BME280;63511;49.346;8.798;2023-04-30T12:09:08;100482.84;;;20.44;45.25
61384;BME280;63511;49.346;8.798;2023-04-30T12:11:36;100484.34;;;20.38;43.18
61384;BME280;63511;49.346;8.798;2023-04-30T12:14:04;100478.66;;;20.21;42.26
61384;BME280;63511;49.346;8.798;2023-04-30T12:16:38;100479.25;;;20.12;41.83
61384;BME280;63511;49.346;8.798;2023-04-30T12:19:05;100466.88;;;20.84;42.71
61384;BME280;63511;49.346;8.798;2023-04-30T12:21:35;100467.63;;;21.77;40.98
61384;BME280;63511;49.346;8.798;2023-04-30T12:24:04;100469.63;;;21.89;41.90
61384;BME280;63511;49.346;8.798;2023-04-30T12:26:37;100473.09;;;20.62;45.48
61384;BME280;63511;49.346;8.798;2023-04-30T12:29:04;100469.94;;;20.43;43.11
61384;BME280;63511;49.346;8.798;2023-04-30T12:31:31;100467.13;;;20.33;42.54
61384;BME280;63511;49.346;8.798;2023-04-30T12:34:01;100466.13;;;20.30;42.52
61384;BME280;63511;49.346;8.798;2023-04-30T12:36:29;100462.50;;;20.50;43.69
61384;BME280;63511;49.346;8.798;2023-04-30T12:39:00;100460.44;;;20.12;45.20
61384;BME280;63511;49.346;8.798;2023-04-30T12:41:28;100461.50;;;20.47;44.91
61384;BME280;63511;49.346;8.798;2023-04-30T12:46:37;100461.88;;;19.77;44.39
61384;BME280;63511;49.346;8.798;2023-04-30T12:49:03;100458.72;;;19.59;45.65
61384;BME280;63511;49.346;8.798;2023-04-30T12:51:31;100459.41;;;19.80;44.51
61384;BME280;63511;49.346;8.798;2023-04-30T12:53:58;100456.91;;;20.08;44.42
61384;BME280;63511;49.346;8.798;2023-04-30T12:56:25;100440.66;;;20.96;43.71
61384;BME280;63511;49.346;8.798;2023-04-30T12:58:52;100432.06;;;21.25;43.84
61384;BME280;63511;49.346;8.798;2023-04-30T13:01:20;100428.47;;;21.18;43.27
61384;BME280;63511;49.346;8.798;2023-04-30T13:03:49;100425.69;;;21.44;42.32
61384;BME280;63511;49.346;8.798;2023-04-30T13:06:16;100423.94;;;21.77;41.82
61384;BME280;63511;49.346;8.798;2023-04-30T13:08:45;100421.25;;;21.05;43.62